Springfield Branson National Airport Springfield US
ICAO: KSGF
IATA: SGF
Category: Large
Scheduled Services: Yes

Elevation: 1268 ft
TransAlt. 18000 ft.

Airport Communications:
APP/DEP:124.95
ATIS:119.05
CLNC DEL:123.675
GND:121.9
ARNG OPS:134.95
COLUMBIA RDO:122.55
TWR:119.9
UNICOM:122.95

KSGF Zoom In..

Runways:

(A) RW 02 length 7003 ft width 150 ft
ILS 109.90 / hdg 19

(B) RW 14 length 8000 ft width 150 ft
ILS 109.70 / hdg 139

(C) RW 20 length 7003 ft width 150 ft
---- / hdg 199

(D) RW 32 length 8000 ft width 150 ft
---- / hdg 319

Location; KSGF
Day. 06 / Time. 05.52 Zulu
* Altimeter: 29.98
* Temperature: 24° c. 75.2°f.
* Wind from: 120° Speed 03 kn.
Dewpoint: 21° c.
Visibility: 10 Statute Miles.
Clouds: Clear (automated report).

KSGF 060552Z 12003KT 10SM CLR 24/21 A2998 RMK AO2 SLP136 T02390211 10311 20233 403280217 50002


Wind From 120°
Speed 03 kn.

 
 
jpsmedia worldairports.se 2020   terms of use